TAF KIAG
KIAG 090530Z 0906/1006 27006KT P6SM BKN040 FM091000 VRB05KT P6SM BKN100 FM091900 12006KT P6SM BKN080 FM092100 12008KT P6SM BKN040 FM100500 15009KT P6SM BKN030=
METAR KIAG
WC KIAG
WS KIAG
WV KIAG